sensor_id;sensor_type;location;lat;lon;timestamp;temperature;humidity
36384;DHT22;22418;51.210;6.976;2023-06-14T00:02:14;20.00;74.50
36384;DHT22;22418;51.210;6.976;2023-06-14T00:04:45;20.00;74.80
36384;DHT22;22418;51.210;6.976;2023-06-14T00:07:18;20.00;75.00
36384;DHT22;22418;51.210;6.976;2023-06-14T00:09:49;19.80;75.30
36384;DHT22;22418;51.210;6.976;2023-06-14T00:12:19;19.60;75.20
36384;DHT22;22418;51.210;6.976;2023-06-14T00:14:50;19.50;75.30
36384;DHT22;22418;51.210;6.976;2023-06-14T00:17:20;19.50;75.20
36384;DHT22;22418;51.210;6.976;2023-06-14T00:19:51;19.50;75.50
36384;DHT22;22418;51.210;6.976;2023-06-14T00:22:23;19.50;74.90
36384;DHT22;22418;51.210;6.976;2023-06-14T00:24:59;19.50;75.40
36384;DHT22;22418;51.210;6.976;2023-06-14T00:27:30;19.50;75.70
36384;DHT22;22418;51.210;6.976;2023-06-14T00:30:00;19.50;76.00
36384;DHT22;22418;51.210;6.976;2023-06-14T00:32:31;19.50;76.20
36384;DHT22;22418;51.210;6.976;2023-06-14T00:35:02;19.60;76.50
36384;DHT22;22418;51.210;6.976;2023-06-14T00:37:32;19.60;76.70
36384;DHT22;22418;51.210;6.976;2023-06-14T00:40:03;19.60;75.30
36384;DHT22;22418;51.210;6.976;2023-06-14T00:42:34;19.60;76.80
36384;DHT22;22418;51.210;6.976;2023-06-14T00:45:05;19.60;76.80
36384;DHT22;22418;51.210;6.976;2023-06-14T00:47:37;19.50;76.30
36384;DHT22;22418;51.210;6.976;2023-06-14T00:50:09;19.50;76.80
36384;DHT22;22418;51.210;6.976;2023-06-14T00:52:40;19.40;77.10
36384;DHT22;22418;51.210;6.976;2023-06-14T00:55:10;19.40;78.30
36384;DHT22;22418;51.210;6.976;2023-06-14T00:57:41;19.40;77.70
36384;DHT22;22418;51.210;6.976;2023-06-14T01:00:12;19.40;78.00
36384;DHT22;22418;51.210;6.976;2023-06-14T01:02:43;19.40;78.60
36384;DHT22;22418;51.210;6.976;2023-06-14T01:05:14;19.30;78.40
36384;DHT22;22418;51.210;6.976;2023-06-14T01:13:34;18.50;80.70
36384;DHT22;22418;51.210;6.976;2023-06-14T01:16:07;18.30;81.20
36384;DHT22;22418;51.210;6.976;2023-06-14T01:18:39;18.20;82.20
36384;DHT22;22418;51.210;6.976;2023-06-14T01:21:25;18.20;82.80
36384;DHT22;22418;51.210;6.976;2023-06-14T01:23:56;18.10;83.30
36384;DHT22;22418;51.210;6.976;2023-06-14T01:26:26;18.00;83.50
36384;DHT22;22418;51.210;6.976;2023-06-14T01:28:59;18.00;83.90
36384;DHT22;22418;51.210;6.976;2023-06-14T01:31:30;18.00;84.10
36384;DHT22;22418;51.210;6.976;2023-06-14T01:34:11;17.90;84.70
36384;DHT22;22418;51.210;6.976;2023-06-14T01:36:43;17.80;84.80
36384;DHT22;22418;51.210;6.976;2023-06-14T01:39:15;17.50;85.40
36384;DHT22;22418;51.210;6.976;2023-06-14T01:41:47;17.60;85.40
36384;DHT22;22418;51.210;6.976;2023-06-14T01:44:20;17.60;85.20
36384;DHT22;22418;51.210;6.976;2023-06-14T01:46:51;17.70;85.10
36384;DHT22;22418;51.210;6.976;2023-06-14T01:49:21;17.70;84.80
36384;DHT22;22418;51.210;6.976;2023-06-14T01:51:52;17.70;84.60
36384;DHT22;22418;51.210;6.976;2023-06-14T01:54:22;17.70;84.40
36384;DHT22;22418;51.210;6.976;2023-06-14T01:56:56;17.70;84.70
36384;DHT22;22418;51.210;6.976;2023-06-14T01:59:27;17.60;85.00
36384;DHT22;22418;51.210;6.976;2023-06-14T02:01:57;17.70;85.10
36384;DHT22;22418;51.210;6.976;2023-06-14T02:04:28;17.60;85.00
36384;DHT22;22418;51.210;6.976;2023-06-14T02:06:59;17.60;85.30
36384;DHT22;22418;51.210;6.976;2023-06-14T02:09:29;17.70;85.30
36384;DHT22;22418;51.210;6.976;2023-06-14T02:12:00;17.70;85.30
36384;DHT22;22418;51.210;6.976;2023-06-14T02:14:30;17.60;85.70
36384;DHT22;22418;51.210;6.976;2023-06-14T02:17:01;17.60;85.70
36384;DHT22;22418;51.210;6.976;2023-06-14T02:19:32;17.50;86.20
36384;DHT22;22418;51.210;6.976;2023-06-14T02:22:03;17.50;86.00
36384;DHT22;22418;51.210;6.976;2023-06-14T02:24:34;17.50;86.30
36384;DHT22;22418;51.210;6.976;2023-06-14T02:27:05;17.50;85.90
36384;DHT22;22418;51.210;6.976;2023-06-14T02:29:36;17.60;86.10
36384;DHT22;22418;51.210;6.976;2023-06-14T02:32:07;17.60;86.00
36384;DHT22;22418;51.210;6.976;2023-06-14T02:34:38;17.40;86.70
36384;DHT22;22418;51.210;6.976;2023-06-14T02:37:11;17.40;86.20
36384;DHT22;22418;51.210;6.976;2023-06-14T02:42:14;17.30;86.70
36384;DHT22;22418;51.210;6.976;2023-06-14T02:44:45;17.40;86.50
36384;DHT22;22418;51.210;6.976;2023-06-14T02:47:18;17.30;87.30
36384;DHT22;22418;51.210;6.976;2023-06-14T02:49:48;17.20;87.60
36384;DHT22;22418;51.210;6.976;2023-06-14T02:52:19;17.10;88.70
36384;DHT22;22418;51.210;6.976;2023-06-14T02:54:50;17.00;88.90
36384;DHT22;22418;51.210;6.976;2023-06-14T02:57:23;17.00;89.00
36384;DHT22;22418;51.210;6.976;2023-06-14T02:59:54;16.80;89.20
36384;DHT22;22418;51.210;6.976;2023-06-14T03:02:24;16.80;89.00
36384;DHT22;22418;51.210;6.976;2023-06-14T03:04:55;16.80;89.10
36384;DHT22;22418;51.210;6.976;2023-06-14T03:07:26;16.80;88.80
36384;DHT22;22418;51.210;6.976;2023-06-14T03:09:58;16.80;88.60
36384;DHT22;22418;51.210;6.976;2023-06-14T03:12:28;16.90;88.20
36384;DHT22;22418;51.210;6.976;2023-06-14T03:14:59;16.90;88.20
36384;DHT22;22418;51.210;6.976;2023-06-14T03:17:34;16.90;87.90
36384;DHT22;22418;51.210;6.976;2023-06-14T03:20:09;17.00;87.90
36384;DHT22;22418;51.210;6.976;2023-06-14T03:22:39;17.00;87.40
36384;DHT22;22418;51.210;6.976;2023-06-14T03:25:11;17.00;87.60
36384;DHT22;22418;51.210;6.976;2023-06-14T03:27:41;17.00;87.50
36384;DHT22;22418;51.210;6.976;2023-06-14T03:30:12;17.00;87.40
36384;DHT22;22418;51.210;6.976;2023-06-14T03:32:43;16.90;87.50
36384;DHT22;22418;51.210;6.976;2023-06-14T03:35:13;16.90;87.70
36384;DHT22;22418;51.210;6.976;2023-06-14T03:37:50;16.90;87.80
36384;DHT22;22418;51.210;6.976;2023-06-14T03:40:21;16.90;87.70
36384;DHT22;22418;51.210;6.976;2023-06-14T03:42:52;16.90;87.80
36384;DHT22;22418;51.210;6.976;2023-06-14T03:45:23;16.90;87.80
36384;DHT22;22418;51.210;6.976;2023-06-14T03:47:53;17.00;87.70
36384;DHT22;22418;51.210;6.976;2023-06-14T03:50:25;17.00;87.60
36384;DHT22;22418;51.210;6.976;2023-06-14T03:52:55;17.10;87.40
36384;DHT22;22418;51.210;6.976;2023-06-14T03:55:26;17.30;87.10
36384;DHT22;22418;51.210;6.976;2023-06-14T03:57:57;17.50;86.70
36384;DHT22;22418;51.210;6.976;2023-06-14T04:00:28;17.70;88.10
36384;DHT22;22418;51.210;6.976;2023-06-14T04:02:59;17.90;88.30
36384;DHT22;22418;51.210;6.976;2023-06-14T04:05:30;17.90;87.60
36384;DHT22;22418;51.210;6.976;2023-06-14T04:08:00;18.00;87.30
36384;DHT22;22418;51.210;6.976;2023-06-14T04:10:31;18.00;88.00
36384;DHT22;22418;51.210;6.976;2023-06-14T04:13:02;18.00;86.80
36384;DHT22;22418;51.210;6.976;2023-06-14T04:15:32;18.00;85.30
36384;DHT22;22418;51.210;6.976;2023-06-14T04:18:03;18.00;85.00
36384;DHT22;22418;51.210;6.976;2023-06-14T04:20:34;18.00;85.20
36384;DHT22;22418;51.210;6.976;2023-06-14T04:23:15;18.10;85.00
36384;DHT22;22418;51.210;6.976;2023-06-14T04:25:48;18.20;84.70
36384;DHT22;22418;51.210;6.976;2023-06-14T04:28:19;18.40;85.00
36384;DHT22;22418;51.210;6.976;2023-06-14T04:30:50;18.70;84.50
36384;DHT22;22418;51.210;6.976;2023-06-14T04:33:20;18.70;83.00
36384;DHT22;22418;51.210;6.976;2023-06-14T04:35:51;18.50;82.70
36384;DHT22;22418;51.210;6.976;2023-06-14T04:38:24;18.50;83.10
36384;DHT22;22418;51.210;6.976;2023-06-14T04:40:56;18.60;82.90
36384;DHT22;22418;51.210;6.976;2023-06-14T04:43:27;18.70;82.10
36384;DHT22;22418;51.210;6.976;2023-06-14T04:45:58;18.80;82.60
36384;DHT22;22418;51.210;6.976;2023-06-14T04:48:28;19.00;82.40
36384;DHT22;22418;51.210;6.976;2023-06-14T04:50:59;19.20;82.50
36384;DHT22;22418;51.210;6.976;2023-06-14T04:53:29;19.30;80.70
36384;DHT22;22418;51.210;6.976;2023-06-14T04:56:01;19.50;80.00
36384;DHT22;22418;51.210;6.976;2023-06-14T04:58:33;19.70;79.50
36384;DHT22;22418;51.210;6.976;2023-06-14T05:01:03;19.90;79.10
36384;DHT22;22418;51.210;6.976;2023-06-14T05:03:34;20.00;79.20
36384;DHT22;22418;51.210;6.976;2023-06-14T05:06:05;20.00;78.80
36384;DHT22;22418;51.210;6.976;2023-06-14T05:08:36;20.20;79.00
36384;DHT22;22418;51.210;6.976;2023-06-14T05:11:07;20.40;78.10
36384;DHT22;22418;51.210;6.976;2023-06-14T05:13:37;20.70;76.70
36384;DHT22;22418;51.210;6.976;2023-06-14T05:16:08;21.40;74.30
36384;DHT22;22418;51.210;6.976;2023-06-14T05:18:38;22.00;74.20
36384;DHT22;22418;51.210;6.976;2023-06-14T05:21:10;22.70;71.60
36384;DHT22;22418;51.210;6.976;2023-06-14T05:23:41;22.60;71.00
36384;DHT22;22418;51.210;6.976;2023-06-14T05:26:12;22.90;70.60
36384;DHT22;22418;51.210;6.976;2023-06-14T05:28:42;22.90;69.70
36384;DHT22;22418;51.210;6.976;2023-06-14T05:31:13;22.60;70.90
36384;DHT22;22418;51.210;6.976;2023-06-14T05:33:43;22.40;71.00
36384;DHT22;22418;51.210;6.976;2023-06-14T05:36:14;22.70;70.40
36384;DHT22;22418;51.210;6.976;2023-06-14T05:38:45;22.20;70.40
36384;DHT22;22418;51.210;6.976;2023-06-14T05:41:16;22.10;71.30
36384;DHT22;22418;51.210;6.976;2023-06-14T05:43:46;22.20;70.80
36384;DHT22;22418;51.210;6.976;2023-06-14T05:46:17;22.50;70.60
36384;DHT22;22418;51.210;6.976;2023-06-14T05:48:52;22.60;70.50
36384;DHT22;22418;51.210;6.976;2023-06-14T05:51:23;22.70;69.40
36384;DHT22;22418;51.210;6.976;2023-06-14T05:53:55;23.50;69.10
36384;DHT22;22418;51.210;6.976;2023-06-14T05:56:26;23.80;68.10
36384;DHT22;22418;51.210;6.976;2023-06-14T05:58:57;24.70;67.10
36384;DHT22;22418;51.210;6.976;2023-06-14T06:01:27;26.20;65.30
36384;DHT22;22418;51.210;6.976;2023-06-14T06:03:58;27.00;63.20
36384;DHT22;22418;51.210;6.976;2023-06-14T06:06:28;27.80;61.60
36384;DHT22;22418;51.210;6.976;2023-06-14T06:08:59;29.30;60.50
36384;DHT22;22418;51.210;6.976;2023-06-14T06:11:30;30.00;59.20
36384;DHT22;22418;51.210;6.976;2023-06-14T06:14:01;30.00;58.40
36384;DHT22;22418;51.210;6.976;2023-06-14T06:16:32;30.60;58.30
36384;DHT22;22418;51.210;6.976;2023-06-14T06:19:03;31.20;57.10
36384;DHT22;22418;51.210;6.976;2023-06-14T06:21:33;31.50;57.40
36384;DHT22;22418;51.210;6.976;2023-06-14T06:24:05;32.20;56.20
36384;DHT22;22418;51.210;6.976;2023-06-14T06:26:35;32.40;56.10
36384;DHT22;22418;51.210;6.976;2023-06-14T06:29:06;32.40;56.00
36384;DHT22;22418;51.210;6.976;2023-06-14T06:31:37;32.20;55.30
36384;DHT22;22418;51.210;6.976;2023-06-14T06:34:07;31.20;55.10
36384;DHT22;22418;51.210;6.976;2023-06-14T06:36:38;30.40;55.40
36384;DHT22;22418;51.210;6.976;2023-06-14T06:39:09;29.50;57.10
36384;DHT22;22418;51.210;6.976;2023-06-14T06:41:40;28.90;56.60
36384;DHT22;22418;51.210;6.976;2023-06-14T06:44:11;29.00;57.00
36384;DHT22;22418;51.210;6.976;2023-06-14T06:46:41;29.00;56.70
36384;DHT22;22418;51.210;6.976;2023-06-14T06:49:13;29.30;56.40
36384;DHT22;22418;51.210;6.976;2023-06-14T06:51:53;29.90;55.60
36384;DHT22;22418;51.210;6.976;2023-06-14T06:54:29;30.60;56.10
36384;DHT22;22418;51.210;6.976;2023-06-14T06:57:00;31.00;54.60
36384;DHT22;22418;51.210;6.976;2023-06-14T06:59:32;31.30;54.40
36384;DHT22;22418;51.210;6.976;2023-06-14T07:02:03;30.00;54.70
36384;DHT22;22418;51.210;6.976;2023-06-14T07:04:34;28.90;55.30
36384;DHT22;22418;51.210;6.976;2023-06-14T07:07:05;29.00;55.40
36384;DHT22;22418;51.210;6.976;2023-06-14T07:09:35;28.70;55.30
36384;DHT22;22418;51.210;6.976;2023-06-14T07:12:06;28.00;55.40
36384;DHT22;22418;51.210;6.976;2023-06-14T07:14:38;27.40;56.20
36384;DHT22;22418;51.210;6.976;2023-06-14T07:17:08;27.00;57.30
36384;DHT22;22418;51.210;6.976;2023-06-14T07:19:40;26.40;57.80
36384;DHT22;22418;51.210;6.976;2023-06-14T07:22:10;26.20;58.60
36384;DHT22;22418;51.210;6.976;2023-06-14T07:24:41;26.30;56.90
36384;DHT22;22418;51.210;6.976;2023-06-14T07:27:12;25.70;58.30
36384;DHT22;22418;51.210;6.976;2023-06-14T07:29:43;25.00;59.60
36384;DHT22;22418;51.210;6.976;2023-06-14T07:32:14;24.60;60.10
36384;DHT22;22418;51.210;6.976;2023-06-14T07:34:44;25.10;60.90
36384;DHT22;22418;51.210;6.976;2023-06-14T07:37:15;25.50;59.80
36384;DHT22;22418;51.210;6.976;2023-06-14T07:39:45;25.20;59.20
36384;DHT22;22418;51.210;6.976;2023-06-14T07:42:16;25.30;59.50
36384;DHT22;22418;51.210;6.976;2023-06-14T07:44:46;25.20;59.40
36384;DHT22;22418;51.210;6.976;2023-06-14T07:47:17;25.60;60.40
36384;DHT22;22418;51.210;6.976;2023-06-14T07:49:48;26.10;59.50
36384;DHT22;22418;51.210;6.976;2023-06-14T07:52:18;25.60;59.00
36384;DHT22;22418;51.210;6.976;2023-06-14T07:54:49;24.80;59.90
36384;DHT22;22418;51.210;6.976;2023-06-14T07:57:19;24.60;60.10
36384;DHT22;22418;51.210;6.976;2023-06-14T07:59:50;24.40;60.20
36384;DHT22;22418;51.210;6.976;2023-06-14T08:02:21;24.50;60.50
36384;DHT22;22418;51.210;6.976;2023-06-14T08:04:51;24.50;59.80
36384;DHT22;22418;51.210;6.976;2023-06-14T08:07:22;24.80;60.00
36384;DHT22;22418;51.210;6.976;2023-06-14T08:09:53;24.80;59.50
36384;DHT22;22418;51.210;6.976;2023-06-14T08:12:24;24.90;58.90
36384;DHT22;22418;51.210;6.976;2023-06-14T08:14:54;24.40;59.50
36384;DHT22;22418;51.210;6.976;2023-06-14T08:17:25;24.30;60.40
36384;DHT22;22418;51.210;6.976;2023-06-14T08:19:56;24.50;61.30
36384;DHT22;22418;51.210;6.976;2023-06-14T08:22:27;24.70;61.30
36384;DHT22;22418;51.210;6.976;2023-06-14T08:25:02;24.90;61.40
36384;DHT22;22418;51.210;6.976;2023-06-14T08:27:33;24.20;60.70
36384;DHT22;22418;51.210;6.976;2023-06-14T08:30:04;24.00;62.50
36384;DHT22;22418;51.210;6.976;2023-06-14T08:32:35;24.30;63.00
36384;DHT22;22418;51.210;6.976;2023-06-14T08:35:05;24.40;63.50
36384;DHT22;22418;51.210;6.976;2023-06-14T08:37:40;24.10;63.10
36384;DHT22;22418;51.210;6.976;2023-06-14T08:40:22;24.20;65.20
36384;DHT22;22418;51.210;6.976;2023-06-14T08:42:53;24.60;64.40
36384;DHT22;22418;51.210;6.976;2023-06-14T08:45:24;24.40;64.50
36384;DHT22;22418;51.210;6.976;2023-06-14T08:47:58;23.80;63.90
36384;DHT22;22418;51.210;6.976;2023-06-14T08:50:30;23.90;65.00
36384;DHT22;22418;51.210;6.976;2023-06-14T08:53:02;23.70;65.20
36384;DHT22;22418;51.210;6.976;2023-06-14T08:55:33;23.70;65.10
36384;DHT22;22418;51.210;6.976;2023-06-14T08:58:04;24.10;66.00
36384;DHT22;22418;51.210;6.976;2023-06-14T09:00:35;24.10;64.40
36384;DHT22;22418;51.210;6.976;2023-06-14T09:03:08;23.90;63.90
36384;DHT22;22418;51.210;6.976;2023-06-14T09:05:43;23.70;63.80
36384;DHT22;22418;51.210;6.976;2023-06-14T09:08:14;23.60;65.60
36384;DHT22;22418;51.210;6.976;2023-06-14T09:10:46;23.60;64.70
36384;DHT22;22418;51.210;6.976;2023-06-14T09:13:17;23.60;64.00
36384;DHT22;22418;51.210;6.976;2023-06-14T09:15:47;23.50;64.40
36384;DHT22;22418;51.210;6.976;2023-06-14T09:18:18;23.60;63.50
36384;DHT22;22418;51.210;6.976;2023-06-14T09:20:50;23.40;65.30
36384;DHT22;22418;51.210;6.976;2023-06-14T09:23:21;23.40;62.40
36384;DHT22;22418;51.210;6.976;2023-06-14T09:25:52;23.30;63.30
36384;DHT22;22418;51.210;6.976;2023-06-14T09:28:27;23.00;63.50
36384;DHT22;22418;51.210;6.976;2023-06-14T09:30:58;22.80;63.40
36384;DHT22;22418;51.210;6.976;2023-06-14T09:33:28;22.80;63.60
36384;DHT22;22418;51.210;6.976;2023-06-14T09:35:59;23.10;63.60
36384;DHT22;22418;51.210;6.976;2023-06-14T09:38:29;23.00;63.90
36384;DHT22;22418;51.210;6.976;2023-06-14T09:41:03;23.00;63.80
36384;DHT22;22418;51.210;6.976;2023-06-14T09:43:34;22.80;64.30
36384;DHT22;22418;51.210;6.976;2023-06-14T09:46:05;22.70;65.00
36384;DHT22;22418;51.210;6.976;2023-06-14T09:48:36;22.60;64.50
36384;DHT22;22418;51.210;6.976;2023-06-14T09:51:07;22.50;65.30
36384;DHT22;22418;51.210;6.976;2023-06-14T09:53:38;22.80;66.60
36384;DHT22;22418;51.210;6.976;2023-06-14T09:56:11;22.90;65.60
36384;DHT22;22418;51.210;6.976;2023-06-14T09:58:42;22.50;65.60
36384;DHT22;22418;51.210;6.976;2023-06-14T10:01:13;22.50;66.40
36384;DHT22;22418;51.210;6.976;2023-06-14T10:03:45;22.50;66.80
36384;DHT22;22418;51.210;6.976;2023-06-14T10:06:16;22.60;67.90
36384;DHT22;22418;51.210;6.976;2023-06-14T10:08:48;22.60;66.70
36384;DHT22;22418;51.210;6.976;2023-06-14T10:11:19;22.30;67.70
36384;DHT22;22418;51.210;6.976;2023-06-14T10:13:50;22.20;68.00
36384;DHT22;22418;51.210;6.976;2023-06-14T10:16:32;22.10;68.60
36384;DHT22;22418;51.210;6.976;2023-06-14T10:19:25;22.20;69.10
36384;DHT22;22418;51.210;6.976;2023-06-14T10:22:01;22.00;68.20
36384;DHT22;22418;51.210;6.976;2023-06-14T10:24:37;22.00;68.90
36384;DHT22;22418;51.210;6.976;2023-06-14T10:27:09;22.10;69.40
36384;DHT22;22418;51.210;6.976;2023-06-14T10:32:24;22.20;68.30
36384;DHT22;22418;51.210;6.976;2023-06-14T10:35:16;22.20;68.90
36384;DHT22;22418;51.210;6.976;2023-06-14T10:37:46;22.30;69.00
36384;DHT22;22418;51.210;6.976;2023-06-14T10:40:30;22.10;68.70
36384;DHT22;22418;51.210;6.976;2023-06-14T10:43:01;22.20;69.20
36384;DHT22;22418;51.210;6.976;2023-06-14T10:46:13;22.30;70.00
36384;DHT22;22418;51.210;6.976;2023-06-14T10:48:44;22.10;68.60
36384;DHT22;22418;51.210;6.976;2023-06-14T10:51:19;22.00;69.30
36384;DHT22;22418;51.210;6.976;2023-06-14T10:53:56;22.00;69.70
36384;DHT22;22418;51.210;6.976;2023-06-14T10:58:58;22.30;69.40
36384;DHT22;22418;51.210;6.976;2023-06-14T11:01:36;22.00;69.20
36384;DHT22;22418;51.210;6.976;2023-06-14T11:04:09;22.00;69.30
36384;DHT22;22418;51.210;6.976;2023-06-14T11:06:50;22.10;69.70
36384;DHT22;22418;51.210;6.976;2023-06-14T11:12:21;22.00;69.80
36384;DHT22;22418;51.210;6.976;2023-06-14T11:14:53;22.00;70.90
36384;DHT22;22418;51.210;6.976;2023-06-14T11:17:23;22.20;70.90
36384;DHT22;22418;51.210;6.976;2023-06-14T11:20:10;22.10;71.10
36384;DHT22;22418;51.210;6.976;2023-06-14T11:22:44;22.10;69.80
36384;DHT22;22418;51.210;6.976;2023-06-14T11:25:15;22.20;70.20
36384;DHT22;22418;51.210;6.976;2023-06-14T11:27:46;22.40;69.70
36384;DHT22;22418;51.210;6.976;2023-06-14T11:30:17;22.50;70.90
36384;DHT22;22418;51.210;6.976;2023-06-14T11:32:48;22.40;69.40
36384;DHT22;22418;51.210;6.976;2023-06-14T11:35:20;22.40;68.90
36384;DHT22;22418;51.210;6.976;2023-06-14T11:37:54;22.40;70.40
36384;DHT22;22418;51.210;6.976;2023-06-14T11:40:26;22.30;68.80
36384;DHT22;22418;51.210;6.976;2023-06-14T11:43:01;22.40;69.10
36384;DHT22;22418;51.210;6.976;2023-06-14T11:45:32;22.40;69.80
36384;DHT22;22418;51.210;6.976;2023-06-14T11:48:03;22.50;69.20
36384;DHT22;22418;51.210;6.976;2023-06-14T11:50:37;22.50;70.20
36384;DHT22;22418;51.210;6.976;2023-06-14T11:53:09;22.50;68.60
36384;DHT22;22418;51.210;6.976;2023-06-14T11:55:40;22.50;69.20
36384;DHT22;22418;51.210;6.976;2023-06-14T11:58:11;22.50;70.60
36384;DHT22;22418;51.210;6.976;2023-06-14T12:00:48;22.40;71.00
36384;DHT22;22418;51.210;6.976;2023-06-14T12:03:23;22.30;70.30
36384;DHT22;22418;51.210;6.976;2023-06-14T12:06:05;22.40;71.10
36384;DHT22;22418;51.210;6.976;2023-06-14T12:08:38;22.30;70.90
36384;DHT22;22418;51.210;6.976;2023-06-14T12:11:13;22.50;72.30
36384;DHT22;22418;51.210;6.976;2023-06-14T12:13:43;22.60;71.30
36384;DHT22;22418;51.210;6.976;2023-06-14T12:16:14;22.60;72.10
36384;DHT22;22418;51.210;6.976;2023-06-14T12:18:48;22.50;71.50
36384;DHT22;22418;51.210;6.976;2023-06-14T12:21:23;22.50;67.70
36384;DHT22;22418;51.210;6.976;2023-06-14T12:23:53;22.60;69.80
36384;DHT22;22418;51.210;6.976;2023-06-14T12:26:24;22.60;71.60
36384;DHT22;22418;51.210;6.976;2023-06-14T12:28:56;22.70;72.40
36384;DHT22;22418;51.210;6.976;2023-06-14T12:31:27;22.80;71.10
36384;DHT22;22418;51.210;6.976;2023-06-14T12:33:57;22.70;70.80
36384;DHT22;22418;51.210;6.976;2023-06-14T12:36:28;22.70;71.90
36384;DHT22;22418;51.210;6.976;2023-06-14T12:38:59;22.70;72.00
36384;DHT22;22418;51.210;6.976;2023-06-14T12:41:30;22.70;71.90
36384;DHT22;22418;51.210;6.976;2023-06-14T12:44:01;22.80;71.50
36384;DHT22;22418;51.210;6.976;2023-06-14T12:46:34;22.70;71.80
36384;DHT22;22418;51.210;6.976;2023-06-14T12:49:10;22.80;72.40
36384;DHT22;22418;51.210;6.976;2023-06-14T12:51:41;22.90;69.80
36384;DHT22;22418;51.210;6.976;2023-06-14T12:54:12;23.00;69.00
36384;DHT22;22418;51.210;6.976;2023-06-14T12:56:42;23.10;69.70
36384;DHT22;22418;51.210;6.976;2023-06-14T12:59:15;23.10;71.50
36384;DHT22;22418;51.210;6.976;2023-06-14T13:01:45;23.10;70.40
36384;DHT22;22418;51.210;6.976;2023-06-14T13:04:17;23.10;70.50
36384;DHT22;22418;51.210;6.976;2023-06-14T13:06:48;23.20;69.60
36384;DHT22;22418;51.210;6.976;2023-06-14T13:09:18;23.20;70.30
36384;DHT22;22418;51.210;6.976;2023-06-14T13:11:49;23.30;70.40
36384;DHT22;22418;51.210;6.976;2023-06-14T13:14:20;23.20;70.50
36384;DHT22;22418;51.210;6.976;2023-06-14T13:16:50;23.20;71.50
36384;DHT22;22418;51.210;6.976;2023-06-14T13:19:21;23.20;71.60
36384;DHT22;22418;51.210;6.976;2023-06-14T13:21:52;23.10;71.20
36384;DHT22;22418;51.210;6.976;2023-06-14T13:24:23;23.20;72.30
36384;DHT22;22418;51.210;6.976;2023-06-14T13:26:53;23.30;70.10
36384;DHT22;22418;51.210;6.976;2023-06-14T13:29:24;23.40;71.30
36384;DHT22;22418;51.210;6.976;2023-06-14T13:31:55;23.40;71.60
36384;DHT22;22418;51.210;6.976;2023-06-14T13:34:26;23.30;69.80
36384;DHT22;22418;51.210;6.976;2023-06-14T13:36:56;23.10;70.70
36384;DHT22;22418;51.210;6.976;2023-06-14T13:39:29;23.00;70.10
36384;DHT22;22418;51.210;6.976;2023-06-14T13:41:59;23.00;70.50
36384;DHT22;22418;51.210;6.976;2023-06-14T13:44:30;23.10;71.00
36384;DHT22;22418;51.210;6.976;2023-06-14T13:47:00;23.10;69.80
36384;DHT22;22418;51.210;6.976;2023-06-14T13:49:31;23.10;70.40
36384;DHT22;22418;51.210;6.976;2023-06-14T13:52:02;23.10;70.20
36384;DHT22;22418;51.210;6.976;2023-06-14T13:54:33;23.20;68.60
36384;DHT22;22418;51.210;6.976;2023-06-14T13:57:04;23.20;66.90
36384;DHT22;22418;51.210;6.976;2023-06-14T13:59:34;23.40;68.80
36384;DHT22;22418;51.210;6.976;2023-06-14T14:02:06;23.50;69.50
36384;DHT22;22418;51.210;6.976;2023-06-14T14:04:38;23.60;68.30
36384;DHT22;22418;51.210;6.976;2023-06-14T14:07:09;23.40;69.20
36384;DHT22;22418;51.210;6.976;2023-06-14T14:09:39;23.30;69.80
36384;DHT22;22418;51.210;6.976;2023-06-14T14:12:10;23.20;68.80
36384;DHT22;22418;51.210;6.976;2023-06-14T14:14:41;23.20;69.50
36384;DHT22;22418;51.210;6.976;2023-06-14T14:17:12;23.20;69.40
36384;DHT22;22418;51.210;6.976;2023-06-14T14:19:43;23.30;70.00
36384;DHT22;22418;51.210;6.976;2023-06-14T14:22:14;23.40;70.30
36384;DHT22;22418;51.210;6.976;2023-06-14T14:24:44;23.30;69.10
36384;DHT22;22418;51.210;6.976;2023-06-14T14:27:15;23.40;70.50
36384;DHT22;22418;51.210;6.976;2023-06-14T14:29:45;23.40;67.20
36384;DHT22;22418;51.210;6.976;2023-06-14T14:32:16;23.40;66.30
36384;DHT22;22418;51.210;6.976;2023-06-14T14:34:46;23.40;66.90
36384;DHT22;22418;51.210;6.976;2023-06-14T14:37:17;23.40;65.70
36384;DHT22;22418;51.210;6.976;2023-06-14T14:39:48;23.40;65.80
36384;DHT22;22418;51.210;6.976;2023-06-14T14:42:18;23.50;67.90
36384;DHT22;22418;51.210;6.976;2023-06-14T14:44:50;23.60;68.10
36384;DHT22;22418;51.210;6.976;2023-06-14T14:47:20;23.60;67.90
36384;DHT22;22418;51.210;6.976;2023-06-14T14:49:51;23.50;68.90
36384;DHT22;22418;51.210;6.976;2023-06-14T14:52:21;23.60;68.60
36384;DHT22;22418;51.210;6.976;2023-06-14T14:54:52;23.60;69.40
36384;DHT22;22418;51.210;6.976;2023-06-14T14:57:23;23.40;69.00
36384;DHT22;22418;51.210;6.976;2023-06-14T14:59:53;23.30;69.80
36384;DHT22;22418;51.210;6.976;2023-06-14T15:02:24;23.30;67.30
36384;DHT22;22418;51.210;6.976;2023-06-14T15:04:55;23.30;65.90
36384;DHT22;22418;51.210;6.976;2023-06-14T15:07:27;23.40;67.30
36384;DHT22;22418;51.210;6.976;2023-06-14T15:09:58;23.50;66.30
36384;DHT22;22418;51.210;6.976;2023-06-14T15:12:29;23.50;65.80
36384;DHT22;22418;51.210;6.976;2023-06-14T15:14:59;23.30;65.60
36384;DHT22;22418;51.210;6.976;2023-06-14T15:17:30;23.20;66.90
36384;DHT22;22418;51.210;6.976;2023-06-14T15:20:01;23.30;65.80
36384;DHT22;22418;51.210;6.976;2023-06-14T15:22:31;23.40;66.20
36384;DHT22;22418;51.210;6.976;2023-06-14T15:25:04;23.50;66.50
36384;DHT22;22418;51.210;6.976;2023-06-14T15:27:37;23.60;66.20
36384;DHT22;22418;51.210;6.976;2023-06-14T15:30:08;23.60;66.00
36384;DHT22;22418;51.210;6.976;2023-06-14T15:32:39;23.50;65.90
36384;DHT22;22418;51.210;6.976;2023-06-14T15:35:09;23.40;66.40
36384;DHT22;22418;51.210;6.976;2023-06-14T15:37:40;23.20;65.40
36384;DHT22;22418;51.210;6.976;2023-06-14T15:40:11;23.20;65.60
36384;DHT22;22418;51.210;6.976;2023-06-14T15:42:41;23.20;63.90
36384;DHT22;22418;51.210;6.976;2023-06-14T15:45:12;23.30;63.80
36384;DHT22;22418;51.210;6.976;2023-06-14T15:47:43;23.40;64.60
36384;DHT22;22418;51.210;6.976;2023-06-14T15:50:13;23.50;65.10
36384;DHT22;22418;51.210;6.976;2023-06-14T15:52:44;23.70;64.50
36384;DHT22;22418;51.210;6.976;2023-06-14T15:55:14;23.70;64.30
36384;DHT22;22418;51.210;6.976;2023-06-14T15:57:45;23.70;65.50
36384;DHT22;22418;51.210;6.976;2023-06-14T16:00:16;23.40;64.70
36384;DHT22;22418;51.210;6.976;2023-06-14T16:02:46;23.30;65.40
36384;DHT22;22418;51.210;6.976;2023-06-14T16:05:17;23.20;65.80
36384;DHT22;22418;51.210;6.976;2023-06-14T16:07:48;23.20;64.90
36384;DHT22;22418;51.210;6.976;2023-06-14T16:10:18;23.20;64.80
36384;DHT22;22418;51.210;6.976;2023-06-14T16:12:49;23.20;64.60
36384;DHT22;22418;51.210;6.976;2023-06-14T16:15:19;23.40;65.10